sensor_id;sensor_type;location;lat;lon;timestamp;temperature;humidity
8994;DHT22;4532;50.886;4.700;2022-12-29T00:01:01;13.70;99.90
8994;DHT22;4532;50.886;4.700;2022-12-29T00:03:29;13.70;99.90
8994;DHT22;4532;50.886;4.700;2022-12-29T00:05:57;13.70;99.90
8994;DHT22;4532;50.886;4.700;2022-12-29T00:08:25;13.70;99.90
8994;DHT22;4532;50.886;4.700;2022-12-29T00:11:08;13.70;99.90
8994;DHT22;4532;50.886;4.700;2022-12-29T00:13:36;13.70;99.90
8994;DHT22;4532;50.886;4.700;2022-12-29T00:16:24;13.80;99.90
8994;DHT22;4532;50.886;4.700;2022-12-29T00:18:51;13.70;99.90
8994;DHT22;4532;50.886;4.700;2022-12-29T00:21:20;13.70;99.90
8994;DHT22;4532;50.886;4.700;2022-12-29T00:24:21;13.70;99.90
8994;DHT22;4532;50.886;4.700;2022-12-29T00:29:51;13.70;99.90
8994;DHT22;4532;50.886;4.700;2022-12-29T00:32:37;13.60;99.90
8994;DHT22;4532;50.886;4.700;2022-12-29T00:35:29;13.60;99.90
8994;DHT22;4532;50.886;4.700;2022-12-29T00:38:03;13.60;99.90
8994;DHT22;4532;50.886;4.700;2022-12-29T00:40:49;13.60;99.90
8994;DHT22;4532;50.886;4.700;2022-12-29T00:43:35;13.60;99.90
8994;DHT22;4532;50.886;4.700;2022-12-29T00:46:21;13.60;99.90
8994;DHT22;4532;50.886;4.700;2022-12-29T00:48:51;13.60;99.90
8994;DHT22;4532;50.886;4.700;2022-12-29T00:51:39;13.70;99.90
8994;DHT22;4532;50.886;4.700;2022-12-29T00:54:09;13.70;99.90
8994;DHT22;4532;50.886;4.700;2022-12-29T00:56:36;13.70;99.90
8994;DHT22;4532;50.886;4.700;2022-12-29T00:59:05;13.70;99.90
8994;DHT22;4532;50.886;4.700;2022-12-29T01:01:36;13.70;99.90
8994;DHT22;4532;50.886;4.700;2022-12-29T01:04:05;13.60;99.90
8994;DHT22;4532;50.886;4.700;2022-12-29T01:06:39;13.70;99.90
8994;DHT22;4532;50.886;4.700;2022-12-29T01:09:09;13.70;99.90
8994;DHT22;4532;50.886;4.700;2022-12-29T01:11:55;13.70;99.90
8994;DHT22;4532;50.886;4.700;2022-12-29T01:14:25;13.70;99.90
8994;DHT22;4532;50.886;4.700;2022-12-29T01:16:54;13.70;99.90
8994;DHT22;4532;50.886;4.700;2022-12-29T01:19:24;13.70;99.90
8994;DHT22;4532;50.886;4.700;2022-12-29T01:21:52;13.70;99.90
8994;DHT22;4532;50.886;4.700;2022-12-29T01:24:24;13.70;99.90
8994;DHT22;4532;50.886;4.700;2022-12-29T01:26:55;13.70;99.90
8994;DHT22;4532;50.886;4.700;2022-12-29T01:29:24;13.60;99.90
8994;DHT22;4532;50.886;4.700;2022-12-29T01:31:51;13.70;99.90
8994;DHT22;4532;50.886;4.700;2022-12-29T01:34:19;13.70;99.90
8994;DHT22;4532;50.886;4.700;2022-12-29T01:36:48;13.70;99.90
8994;DHT22;4532;50.886;4.700;2022-12-29T01:39:15;13.60;99.90
8994;DHT22;4532;50.886;4.700;2022-12-29T01:41:43;13.70;99.90
8994;DHT22;4532;50.886;4.700;2022-12-29T01:47:43;13.60;99.90
8994;DHT22;4532;50.886;4.700;2022-12-29T01:50:41;13.60;99.90
8994;DHT22;4532;50.886;4.700;2022-12-29T01:53:26;13.60;99.90
8994;DHT22;4532;50.886;4.700;2022-12-29T01:56:00;13.60;99.90
8994;DHT22;4532;50.886;4.700;2022-12-29T01:58:32;13.50;99.90
8994;DHT22;4532;50.886;4.700;2022-12-29T02:01:00;13.50;99.90
8994;DHT22;4532;50.886;4.700;2022-12-29T02:03:28;13.50;99.90
8994;DHT22;4532;50.886;4.700;2022-12-29T02:06:21;13.50;99.90
8994;DHT22;4532;50.886;4.700;2022-12-29T02:08:50;13.50;99.90
8994;DHT22;4532;50.886;4.700;2022-12-29T02:11:19;13.50;99.90
8994;DHT22;4532;50.886;4.700;2022-12-29T02:13:48;13.40;99.90
8994;DHT22;4532;50.886;4.700;2022-12-29T02:22:27;13.40;99.90
8994;DHT22;4532;50.886;4.700;2022-12-29T02:25:37;13.40;99.90
8994;DHT22;4532;50.886;4.700;2022-12-29T02:28:16;13.40;99.90
8994;DHT22;4532;50.886;4.700;2022-12-29T02:39:20;13.30;99.90
8994;DHT22;4532;50.886;4.700;2022-12-29T02:47:35;13.30;99.90
8994;DHT22;4532;50.886;4.700;2022-12-29T02:52:49;13.30;99.90
8994;DHT22;4532;50.886;4.700;2022-12-29T02:55:19;13.30;99.90
8994;DHT22;4532;50.886;4.700;2022-12-29T02:57:49;13.30;99.90
8994;DHT22;4532;50.886;4.700;2022-12-29T03:00:36;13.30;99.90
8994;DHT22;4532;50.886;4.700;2022-12-29T03:03:16;13.30;99.90
8994;DHT22;4532;50.886;4.700;2022-12-29T03:06:08;13.30;99.90
8994;DHT22;4532;50.886;4.700;2022-12-29T03:08:59;13.30;99.90
8994;DHT22;4532;50.886;4.700;2022-12-29T03:11:35;13.20;99.90
8994;DHT22;4532;50.886;4.700;2022-12-29T03:14:29;13.10;99.90
8994;DHT22;4532;50.886;4.700;2022-12-29T03:17:39;13.00;99.90
8994;DHT22;4532;50.886;4.700;2022-12-29T03:20:08;12.90;99.90
8994;DHT22;4532;50.886;4.700;2022-12-29T03:22:41;12.80;99.90
8994;DHT22;4532;50.886;4.700;2022-12-29T03:25:23;12.80;99.90
8994;DHT22;4532;50.886;4.700;2022-12-29T03:28:01;12.80;99.90
8994;DHT22;4532;50.886;4.700;2022-12-29T03:30:29;12.70;99.90
8994;DHT22;4532;50.886;4.700;2022-12-29T03:33:01;12.60;99.90
8994;DHT22;4532;50.886;4.700;2022-12-29T03:35:37;12.70;99.90
8994;DHT22;4532;50.886;4.700;2022-12-29T03:38:16;12.70;99.90
8994;DHT22;4532;50.886;4.700;2022-12-29T03:40:52;12.60;99.90
8994;DHT22;4532;50.886;4.700;2022-12-29T03:43:22;12.60;99.90
8994;DHT22;4532;50.886;4.700;2022-12-29T03:45:49;12.60;99.90
8994;DHT22;4532;50.886;4.700;2022-12-29T03:48:19;12.60;99.90
8994;DHT22;4532;50.886;4.700;2022-12-29T03:50:46;12.50;99.90
8994;DHT22;4532;50.886;4.700;2022-12-29T03:53:14;12.50;99.90
8994;DHT22;4532;50.886;4.700;2022-12-29T03:55:41;12.40;99.90
8994;DHT22;4532;50.886;4.700;2022-12-29T03:58:10;12.50;99.90
8994;DHT22;4532;50.886;4.700;2022-12-29T04:00:37;12.40;99.90
8994;DHT22;4532;50.886;4.700;2022-12-29T04:03:07;12.50;99.90
8994;DHT22;4532;50.886;4.700;2022-12-29T04:05:37;12.50;99.90
8994;DHT22;4532;50.886;4.700;2022-12-29T04:08:04;12.50;99.90
8994;DHT22;4532;50.886;4.700;2022-12-29T04:10:31;12.50;99.90
8994;DHT22;4532;50.886;4.700;2022-12-29T04:13:04;12.50;99.90
8994;DHT22;4532;50.886;4.700;2022-12-29T04:15:31;12.50;99.90
8994;DHT22;4532;50.886;4.700;2022-12-29T04:17:59;12.50;99.90
8994;DHT22;4532;50.886;4.700;2022-12-29T04:20:26;12.40;99.90
8994;DHT22;4532;50.886;4.700;2022-12-29T04:23:11;12.40;99.90
8994;DHT22;4532;50.886;4.700;2022-12-29T04:25:38;12.30;99.90
8994;DHT22;4532;50.886;4.700;2022-12-29T04:28:06;12.30;99.90
8994;DHT22;4532;50.886;4.700;2022-12-29T04:30:35;12.30;99.90
8994;DHT22;4532;50.886;4.700;2022-12-29T04:33:03;12.30;99.90
8994;DHT22;4532;50.886;4.700;2022-12-29T04:35:32;12.20;99.90
8994;DHT22;4532;50.886;4.700;2022-12-29T04:37:59;12.20;99.90
8994;DHT22;4532;50.886;4.700;2022-12-29T04:40:27;12.20;99.90
8994;DHT22;4532;50.886;4.700;2022-12-29T04:42:54;12.20;99.90
8994;DHT22;4532;50.886;4.700;2022-12-29T04:45:24;12.20;99.90
8994;DHT22;4532;50.886;4.700;2022-12-29T04:47:51;12.20;99.90
8994;DHT22;4532;50.886;4.700;2022-12-29T04:50:20;12.20;99.90
8994;DHT22;4532;50.886;4.700;2022-12-29T04:52:48;12.20;99.90
8994;DHT22;4532;50.886;4.700;2022-12-29T04:55:15;12.20;99.90
8994;DHT22;4532;50.886;4.700;2022-12-29T04:57:44;12.20;99.90
8994;DHT22;4532;50.886;4.700;2022-12-29T05:00:14;12.30;99.90
8994;DHT22;4532;50.886;4.700;2022-12-29T05:02:41;12.30;99.90
8994;DHT22;4532;50.886;4.700;2022-12-29T05:05:09;12.30;99.90
8994;DHT22;4532;50.886;4.700;2022-12-29T05:07:39;12.30;99.90
8994;DHT22;4532;50.886;4.700;2022-12-29T05:10:07;12.30;99.90
8994;DHT22;4532;50.886;4.700;2022-12-29T05:12:36;12.30;99.90
8994;DHT22;4532;50.886;4.700;2022-12-29T05:15:05;12.30;99.90
8994;DHT22;4532;50.886;4.700;2022-12-29T05:17:35;12.30;99.90
8994;DHT22;4532;50.886;4.700;2022-12-29T05:20:04;12.30;99.90
8994;DHT22;4532;50.886;4.700;2022-12-29T05:22:34;12.40;99.90
8994;DHT22;4532;50.886;4.700;2022-12-29T05:25:04;12.40;99.90
8994;DHT22;4532;50.886;4.700;2022-12-29T05:27:31;12.40;99.90
8994;DHT22;4532;50.886;4.700;2022-12-29T05:29:59;12.40;99.90
8994;DHT22;4532;50.886;4.700;2022-12-29T05:32:27;12.40;99.90
8994;DHT22;4532;50.886;4.700;2022-12-29T05:34:56;12.30;99.90
8994;DHT22;4532;50.886;4.700;2022-12-29T05:37:24;12.30;99.90
8994;DHT22;4532;50.886;4.700;2022-12-29T05:39:53;12.30;99.90
8994;DHT22;4532;50.886;4.700;2022-12-29T05:42:20;12.30;99.90
8994;DHT22;4532;50.886;4.700;2022-12-29T05:44:47;12.30;99.90
8994;DHT22;4532;50.886;4.700;2022-12-29T05:47:16;12.30;99.90
8994;DHT22;4532;50.886;4.700;2022-12-29T05:49:46;12.40;99.90
8994;DHT22;4532;50.886;4.700;2022-12-29T05:52:16;12.40;99.90
8994;DHT22;4532;50.886;4.700;2022-12-29T05:54:44;12.40;99.90
8994;DHT22;4532;50.886;4.700;2022-12-29T05:57:16;12.40;99.90
8994;DHT22;4532;50.886;4.700;2022-12-29T05:59:43;12.40;99.90
8994;DHT22;4532;50.886;4.700;2022-12-29T06:02:10;12.40;99.90
8994;DHT22;4532;50.886;4.700;2022-12-29T06:04:42;12.40;99.90
8994;DHT22;4532;50.886;4.700;2022-12-29T06:07:09;12.30;99.90
8994;DHT22;4532;50.886;4.700;2022-12-29T06:09:39;12.30;99.90
8994;DHT22;4532;50.886;4.700;2022-12-29T06:12:06;12.30;99.90
8994;DHT22;4532;50.886;4.700;2022-12-29T06:14:33;12.30;99.90
8994;DHT22;4532;50.886;4.700;2022-12-29T06:17:00;12.30;99.90
8994;DHT22;4532;50.886;4.700;2022-12-29T06:19:32;12.30;99.90
8994;DHT22;4532;50.886;4.700;2022-12-29T06:22:02;12.30;99.90
8994;DHT22;4532;50.886;4.700;2022-12-29T06:24:32;12.30;99.90
8994;DHT22;4532;50.886;4.700;2022-12-29T06:26:59;12.30;99.90
8994;DHT22;4532;50.886;4.700;2022-12-29T06:29:28;12.30;99.90
8994;DHT22;4532;50.886;4.700;2022-12-29T06:31:55;12.30;99.90
8994;DHT22;4532;50.886;4.700;2022-12-29T06:34:25;12.30;99.90
8994;DHT22;4532;50.886;4.700;2022-12-29T06:36:54;12.30;99.90
8994;DHT22;4532;50.886;4.700;2022-12-29T06:39:22;12.30;99.90
8994;DHT22;4532;50.886;4.700;2022-12-29T06:41:55;12.30;99.90
8994;DHT22;4532;50.886;4.700;2022-12-29T06:44:22;12.20;99.90
8994;DHT22;4532;50.886;4.700;2022-12-29T06:46:50;12.20;99.90
8994;DHT22;4532;50.886;4.700;2022-12-29T06:49:20;12.20;99.90
8994;DHT22;4532;50.886;4.700;2022-12-29T06:51:47;12.20;99.90
8994;DHT22;4532;50.886;4.700;2022-12-29T06:54:16;12.20;99.90
8994;DHT22;4532;50.886;4.700;2022-12-29T06:56:45;12.10;99.90
8994;DHT22;4532;50.886;4.700;2022-12-29T06:59:15;12.20;99.90
8994;DHT22;4532;50.886;4.700;2022-12-29T07:01:43;12.10;99.90
8994;DHT22;4532;50.886;4.700;2022-12-29T07:04:10;12.10;99.90
8994;DHT22;4532;50.886;4.700;2022-12-29T07:06:44;12.20;99.90
8994;DHT22;4532;50.886;4.700;2022-12-29T07:09:14;12.20;99.90
8994;DHT22;4532;50.886;4.700;2022-12-29T07:11:46;12.20;99.90
8994;DHT22;4532;50.886;4.700;2022-12-29T07:14:16;12.20;99.90
8994;DHT22;4532;50.886;4.700;2022-12-29T07:16:47;12.20;99.90
8994;DHT22;4532;50.886;4.700;2022-12-29T07:19:17;12.20;99.90
8994;DHT22;4532;50.886;4.700;2022-12-29T07:21:46;12.10;99.90
8994;DHT22;4532;50.886;4.700;2022-12-29T07:24:13;12.20;99.90
8994;DHT22;4532;50.886;4.700;2022-12-29T07:26:42;12.10;99.90
8994;DHT22;4532;50.886;4.700;2022-12-29T07:29:12;12.20;99.90
8994;DHT22;4532;50.886;4.700;2022-12-29T07:31:39;12.20;99.90
8994;DHT22;4532;50.886;4.700;2022-12-29T07:34:10;12.20;99.90
8994;DHT22;4532;50.886;4.700;2022-12-29T07:36:40;12.20;99.90
8994;DHT22;4532;50.886;4.700;2022-12-29T07:39:09;12.20;99.90
8994;DHT22;4532;50.886;4.700;2022-12-29T07:41:38;12.30;99.90
8994;DHT22;4532;50.886;4.700;2022-12-29T07:44:08;12.20;99.90
8994;DHT22;4532;50.886;4.700;2022-12-29T07:46:36;12.20;99.90
8994;DHT22;4532;50.886;4.700;2022-12-29T07:49:23;12.20;99.90
8994;DHT22;4532;50.886;4.700;2022-12-29T07:51:53;12.10;99.90
8994;DHT22;4532;50.886;4.700;2022-12-29T07:54:23;12.20;99.90
8994;DHT22;4532;50.886;4.700;2022-12-29T07:56:51;12.20;99.90
8994;DHT22;4532;50.886;4.700;2022-12-29T07:59:20;12.20;99.90
8994;DHT22;4532;50.886;4.700;2022-12-29T08:01:50;12.20;99.90
8994;DHT22;4532;50.886;4.700;2022-12-29T08:04:17;12.20;99.90
8994;DHT22;4532;50.886;4.700;2022-12-29T08:06:45;12.20;99.90
8994;DHT22;4532;50.886;4.700;2022-12-29T08:09:15;12.20;99.90
8994;DHT22;4532;50.886;4.700;2022-12-29T08:11:50;12.20;99.90
8994;DHT22;4532;50.886;4.700;2022-12-29T08:14:20;12.20;99.90
8994;DHT22;4532;50.886;4.700;2022-12-29T08:16:48;12.20;99.90
8994;DHT22;4532;50.886;4.700;2022-12-29T08:19:20;12.20;99.90
8994;DHT22;4532;50.886;4.700;2022-12-29T08:21:47;12.20;99.90
8994;DHT22;4532;50.886;4.700;2022-12-29T08:24:19;12.20;99.90
8994;DHT22;4532;50.886;4.700;2022-12-29T08:26:49;12.10;99.90
8994;DHT22;4532;50.886;4.700;2022-12-29T08:29:21;12.10;99.90
8994;DHT22;4532;50.886;4.700;2022-12-29T08:31:51;12.10;99.90
8994;DHT22;4532;50.886;4.700;2022-12-29T08:34:18;12.10;99.90
8994;DHT22;4532;50.886;4.700;2022-12-29T08:36:45;12.00;99.90
8994;DHT22;4532;50.886;4.700;2022-12-29T08:39:16;12.10;99.90
8994;DHT22;4532;50.886;4.700;2022-12-29T08:41:44;12.00;99.90
8994;DHT22;4532;50.886;4.700;2022-12-29T08:44:17;12.10;99.90
8994;DHT22;4532;50.886;4.700;2022-12-29T08:46:44;12.10;99.90
8994;DHT22;4532;50.886;4.700;2022-12-29T08:49:11;12.10;99.90
8994;DHT22;4532;50.886;4.700;2022-12-29T08:51:38;12.10;99.90
8994;DHT22;4532;50.886;4.700;2022-12-29T08:54:11;12.10;99.90
8994;DHT22;4532;50.886;4.700;2022-12-29T08:56:40;12.10;99.90
8994;DHT22;4532;50.886;4.700;2022-12-29T08:59:07;12.20;99.90
8994;DHT22;4532;50.886;4.700;2022-12-29T09:01:34;12.10;99.90
8994;DHT22;4532;50.886;4.700;2022-12-29T09:04:03;12.10;99.90
8994;DHT22;4532;50.886;4.700;2022-12-29T09:06:43;12.10;99.90
8994;DHT22;4532;50.886;4.700;2022-12-29T09:09:11;12.20;99.90
8994;DHT22;4532;50.886;4.700;2022-12-29T09:11:39;12.20;99.90
8994;DHT22;4532;50.886;4.700;2022-12-29T09:14:06;12.20;99.90
8994;DHT22;4532;50.886;4.700;2022-12-29T09:16:36;12.20;99.90
8994;DHT22;4532;50.886;4.700;2022-12-29T09:19:04;12.10;99.90
8994;DHT22;4532;50.886;4.700;2022-12-29T09:21:31;12.10;99.90
8994;DHT22;4532;50.886;4.700;2022-12-29T09:23:58;12.20;99.90
8994;DHT22;4532;50.886;4.700;2022-12-29T09:26:26;12.20;99.90
8994;DHT22;4532;50.886;4.700;2022-12-29T09:28:53;12.20;99.90
8994;DHT22;4532;50.886;4.700;2022-12-29T09:31:20;12.20;99.90
8994;DHT22;4532;50.886;4.700;2022-12-29T09:33:50;12.20;99.90
8994;DHT22;4532;50.886;4.700;2022-12-29T09:36:22;12.30;99.90
8994;DHT22;4532;50.886;4.700;2022-12-29T09:38:50;12.30;99.90
8994;DHT22;4532;50.886;4.700;2022-12-29T09:47:32;12.30;99.90
8994;DHT22;4532;50.886;4.700;2022-12-29T09:50:36;12.30;99.90
8994;DHT22;4532;50.886;4.700;2022-12-29T09:53:13;12.40;99.90
8994;DHT22;4532;50.886;4.700;2022-12-29T09:55:47;12.40;99.90
8994;DHT22;4532;50.886;4.700;2022-12-29T09:58:29;12.30;99.90
8994;DHT22;4532;50.886;4.700;2022-12-29T10:01:05;12.30;99.90
8994;DHT22;4532;50.886;4.700;2022-12-29T10:03:50;12.40;99.90
8994;DHT22;4532;50.886;4.700;2022-12-29T10:06:46;12.40;99.90
8994;DHT22;4532;50.886;4.700;2022-12-29T10:15:38;12.40;99.90
8994;DHT22;4532;50.886;4.700;2022-12-29T10:20:31;12.40;99.90
8994;DHT22;4532;50.886;4.700;2022-12-29T10:26:17;12.50;99.90
8994;DHT22;4532;50.886;4.700;2022-12-29T10:28:47;12.40;99.90
8994;DHT22;4532;50.886;4.700;2022-12-29T10:31:31;12.40;99.90
8994;DHT22;4532;50.886;4.700;2022-12-29T10:34:03;12.40;99.90
8994;DHT22;4532;50.886;4.700;2022-12-29T10:36:46;12.50;99.90
8994;DHT22;4532;50.886;4.700;2022-12-29T10:39:26;12.50;99.90
8994;DHT22;4532;50.886;4.700;2022-12-29T10:44:45;12.50;99.90
8994;DHT22;4532;50.886;4.700;2022-12-29T10:47:19;12.50;99.90
8994;DHT22;4532;50.886;4.700;2022-12-29T10:49:48;12.50;99.90
8994;DHT22;4532;50.886;4.700;2022-12-29T10:52:19;12.50;99.90
8994;DHT22;4532;50.886;4.700;2022-12-29T10:55:02;12.50;99.90
8994;DHT22;4532;50.886;4.700;2022-12-29T10:57:36;12.50;99.90
8994;DHT22;4532;50.886;4.700;2022-12-29T11:00:16;12.60;99.90
8994;DHT22;4532;50.886;4.700;2022-12-29T11:05:41;12.60;99.90
8994;DHT22;4532;50.886;4.700;2022-12-29T11:08:14;12.60;99.90
8994;DHT22;4532;50.886;4.700;2022-12-29T11:10:44;12.60;99.90
8994;DHT22;4532;50.886;4.700;2022-12-29T11:13:20;12.60;99.90
8994;DHT22;4532;50.886;4.700;2022-12-29T11:15:51;12.60;99.90
8994;DHT22;4532;50.886;4.700;2022-12-29T11:20:51;12.70;99.90
8994;DHT22;4532;50.886;4.700;2022-12-29T11:26:19;12.70;99.90
8994;DHT22;4532;50.886;4.700;2022-12-29T11:29:15;12.80;99.90
8994;DHT22;4532;50.886;4.700;2022-12-29T11:31:49;12.80;99.90
8994;DHT22;4532;50.886;4.700;2022-12-29T11:34:21;12.80;99.90
8994;DHT22;4532;50.886;4.700;2022-12-29T11:36:57;12.80;99.90
8994;DHT22;4532;50.886;4.700;2022-12-29T11:39:29;12.80;99.90
8994;DHT22;4532;50.886;4.700;2022-12-29T11:41:58;12.80;99.90
8994;DHT22;4532;50.886;4.700;2022-12-29T11:44:26;12.90;99.90
8994;DHT22;4532;50.886;4.700;2022-12-29T11:46:54;12.90;99.90
8994;DHT22;4532;50.886;4.700;2022-12-29T11:49:26;12.90;99.90
8994;DHT22;4532;50.886;4.700;2022-12-29T11:51:56;12.90;99.90
8994;DHT22;4532;50.886;4.700;2022-12-29T11:54:25;12.90;99.90
8994;DHT22;4532;50.886;4.700;2022-12-29T11:56:54;12.90;99.90
8994;DHT22;4532;50.886;4.700;2022-12-29T12:01:58;12.90;99.90
8994;DHT22;4532;50.886;4.700;2022-12-29T12:04:34;12.90;99.90
8994;DHT22;4532;50.886;4.700;2022-12-29T12:07:19;12.90;99.90
8994;DHT22;4532;50.886;4.700;2022-12-29T12:09:51;12.90;99.90
8994;DHT22;4532;50.886;4.700;2022-12-29T12:12:34;12.80;99.90
8994;DHT22;4532;50.886;4.700;2022-12-29T12:15:03;12.80;99.90
8994;DHT22;4532;50.886;4.700;2022-12-29T12:17:37;12.80;99.90
8994;DHT22;4532;50.886;4.700;2022-12-29T12:23:06;12.80;99.90
8994;DHT22;4532;50.886;4.700;2022-12-29T12:25:43;12.80;99.90
8994;DHT22;4532;50.886;4.700;2022-12-29T12:28:28;12.80;99.90
8994;DHT22;4532;50.886;4.700;2022-12-29T12:31:06;12.80;99.90
8994;DHT22;4532;50.886;4.700;2022-12-29T12:33:44;12.80;99.90
8994;DHT22;4532;50.886;4.700;2022-12-29T12:36:26;12.80;99.90
8994;DHT22;4532;50.886;4.700;2022-12-29T12:44:55;12.80;99.90
8994;DHT22;4532;50.886;4.700;2022-12-29T12:53:19;12.80;99.90
8994;DHT22;4532;50.886;4.700;2022-12-29T12:56:03;12.70;99.90
8994;DHT22;4532;50.886;4.700;2022-12-29T12:58:57;12.70;99.90
8994;DHT22;4532;50.886;4.700;2022-12-29T13:01:51;12.70;99.90
8994;DHT22;4532;50.886;4.700;2022-12-29T13:12:31;12.70;99.90
8994;DHT22;4532;50.886;4.700;2022-12-29T13:15:16;12.70;99.90
8994;DHT22;4532;50.886;4.700;2022-12-29T13:24:01;12.80;99.90
8994;DHT22;4532;50.886;4.700;2022-12-29T13:29:12;12.70;99.90
8994;DHT22;4532;50.886;4.700;2022-12-29T13:37:14;12.70;99.90
8994;DHT22;4532;50.886;4.700;2022-12-29T13:39:49;12.70;99.90
8994;DHT22;4532;50.886;4.700;2022-12-29T13:42:19;12.70;99.90
8994;DHT22;4532;50.886;4.700;2022-12-29T13:44:57;12.80;99.90
8994;DHT22;4532;50.886;4.700;2022-12-29T13:50:19;12.70;99.90
8994;DHT22;4532;50.886;4.700;2022-12-29T13:53:05;12.70;99.90
8994;DHT22;4532;50.886;4.700;2022-12-29T13:55:58;12.70;99.90
8994;DHT22;4532;50.886;4.700;2022-12-29T14:03:49;12.70;99.90
8994;DHT22;4532;50.886;4.700;2022-12-29T14:09:05;12.60;99.90
8994;DHT22;4532;50.886;4.700;2022-12-29T14:11:37;12.60;99.90
8994;DHT22;4532;50.886;4.700;2022-12-29T14:14:29;12.70;99.90
8994;DHT22;4532;50.886;4.700;2022-12-29T14:17:11;12.70;99.90
8994;DHT22;4532;50.886;4.700;2022-12-29T14:19:43;12.70;99.90
8994;DHT22;4532;50.886;4.700;2022-12-29T14:22:15;12.60;99.90
8994;DHT22;4532;50.886;4.700;2022-12-29T14:24:59;12.60;99.90
8994;DHT22;4532;50.886;4.700;2022-12-29T14:29:56;12.60;99.90
8994;DHT22;4532;50.886;4.700;2022-12-29T14:35:36;12.50;99.90
8994;DHT22;4532;50.886;4.700;2022-12-29T14:37:47;12.50;99.90
8994;DHT22;4532;50.886;4.700;2022-12-29T14:40:24;12.40;99.90
8994;DHT22;4532;50.886;4.700;2022-12-29T14:42:55;12.40;99.90
8994;DHT22;4532;50.886;4.700;2022-12-29T14:45:30;12.40;99.90
8994;DHT22;4532;50.886;4.700;2022-12-29T14:48:00;12.40;99.90
8994;DHT22;4532;50.886;4.700;2022-12-29T14:50:42;12.40;99.90
8994;DHT22;4532;50.886;4.700;2022-12-29T14:53:43;12.40;99.90
8994;DHT22;4532;50.886;4.700;2022-12-29T14:56:11;12.40;99.90
8994;DHT22;4532;50.886;4.700;2022-12-29T14:59:02;12.40;99.90
8994;DHT22;4532;50.886;4.700;2022-12-29T15:01:53;12.40;99.90
8994;DHT22;4532;50.886;4.700;2022-12-29T15:04:32;12.30;99.90
8994;DHT22;4532;50.886;4.700;2022-12-29T15:07:00;12.30;99.90
8994;DHT22;4532;50.886;4.700;2022-12-29T15:09:36;12.30;99.90
8994;DHT22;4532;50.886;4.700;2022-12-29T15:12:30;12.30;99.90
8994;DHT22;4532;50.886;4.700;2022-12-29T15:15:00;12.30;99.90
8994;DHT22;4532;50.886;4.700;2022-12-29T15:17:36;12.20;99.90
8994;DHT22;4532;50.886;4.700;2022-12-29T15:20:29;12.20;99.90
8994;DHT22;4532;50.886;4.700;2022-12-29T15:23:00;12.20;99.90
8994;DHT22;4532;50.886;4.700;2022-12-29T15:25:28;12.20;99.90
8994;DHT22;4532;50.886;4.700;2022-12-29T15:28:02;12.20;99.90
8994;DHT22;4532;50.886;4.700;2022-12-29T15:30:31;12.20;99.90
8994;DHT22;4532;50.886;4.700;2022-12-29T15:32:59;12.20;99.90
8994;DHT22;4532;50.886;4.700;2022-12-29T15:37:57;12.10;99.90
8994;DHT22;4532;50.886;4.700;2022-12-29T15:40:28;12.00;99.90
8994;DHT22;4532;50.886;4.700;2022-12-29T15:45:38;11.80;99.90
8994;DHT22;4532;50.886;4.700;2022-12-29T15:48:19;11.80;99.90
8994;DHT22;4532;50.886;4.700;2022-12-29T15:50:49;11.70;99.90
8994;DHT22;4532;50.886;4.700;2022-12-29T15:53:22;11.60;99.90
8994;DHT22;4532;50.886;4.700;2022-12-29T15:56:09;11.50;99.90
8994;DHT22;4532;50.886;4.700;2022-12-29T15:58:45;11.50;99.90
8994;DHT22;4532;50.886;4.700;2022-12-29T16:01:33;11.50;99.90
8994;DHT22;4532;50.886;4.700;2022-12-29T16:04:06;11.40;99.90
8994;DHT22;4532;50.886;4.700;2022-12-29T16:06:43;11.30;99.90
8994;DHT22;4532;50.886;4.700;2022-12-29T16:09:32;11.30;99.90
8994;DHT22;4532;50.886;4.700;2022-12-29T16:12:05;11.20;99.90
8994;DHT22;4532;50.886;4.700;2022-12-29T16:14:39;11.20;99.90
8994;DHT22;4532;50.886;4.700;2022-12-29T16:17:12;11.20;99.90
8994;DHT22;4532;50.886;4.700;2022-12-29T16:19:52;11.20;99.90
8994;DHT22;4532;50.886;4.700;2022-12-29T16:22:36;11.10;99.90
8994;DHT22;4532;50.886;4.700;2022-12-29T16:25:24;11.10;99.90
8994;DHT22;4532;50.886;4.700;2022-12-29T16:27:52;11.10;99.90
8994;DHT22;4532;50.886;4.700;2022-12-29T16:30:25;11.10;99.90
8994;DHT22;4532;50.886;4.700;2022-12-29T16:33:02;11.10;99.90
8994;DHT22;4532;50.886;4.700;2022-12-29T16:35:50;11.00;99.90
8994;DHT22;4532;50.886;4.700;2022-12-29T16:38:19;11.00;99.90
8994;DHT22;4532;50.886;4.700;2022-12-29T16:40:58;11.00;99.90
8994;DHT22;4532;50.886;4.700;2022-12-29T16:43:36;11.00;99.90
8994;DHT22;4532;50.886;4.700;2022-12-29T16:46:18;11.00;99.90
8994;DHT22;4532;50.886;4.700;2022-12-29T16:48:52;11.00;99.90
8994;DHT22;4532;50.886;4.700;2022-12-29T16:51:35;10.90;99.90
8994;DHT22;4532;50.886;4.700;2022-12-29T16:54:04;10.90;99.90
8994;DHT22;4532;50.886;4.700;2022-12-29T16:56:35;10.90;99.90
8994;DHT22;4532;50.886;4.700;2022-12-29T17:01:38;10.80;99.90
8994;DHT22;4532;50.886;4.700;2022-12-29T17:04:10;10.80;99.90
8994;DHT22;4532;50.886;4.700;2022-12-29T17:06:40;10.80;99.90
8994;DHT22;4532;50.886;4.700;2022-12-29T17:09:21;10.80;99.90
8994;DHT22;4532;50.886;4.700;2022-12-29T17:11:56;10.70;99.90
8994;DHT22;4532;50.886;4.700;2022-12-29T17:14:40;10.70;99.90
8994;DHT22;4532;50.886;4.700;2022-12-29T17:17:18;10.70;99.90
8994;DHT22;4532;50.886;4.700;2022-12-29T17:19:53;10.70;99.90
8994;DHT22;4532;50.886;4.700;2022-12-29T17:22:27;10.60;99.90
8994;DHT22;4532;50.886;4.700;2022-12-29T17:24:56;10.60;99.90
8994;DHT22;4532;50.886;4.700;2022-12-29T17:27:31;10.50;99.90
8994;DHT22;4532;50.886;4.700;2022-12-29T17:30:05;10.60;99.90
8994;DHT22;4532;50.886;4.700;2022-12-29T17:32:36;10.50;99.90
8994;DHT22;4532;50.886;4.700;2022-12-29T17:35:13;10.60;99.90
8994;DHT22;4532;50.886;4.700;2022-12-29T17:37:40;10.60;99.90
8994;DHT22;4532;50.886;4.700;2022-12-29T17:40:13;10.50;99.90
8994;DHT22;4532;50.886;4.700;2022-12-29T17:42:45;10.50;99.90
8994;DHT22;4532;50.886;4.700;2022-12-29T17:45:21;10.40;99.90
8994;DHT22;4532;50.886;4.700;2022-12-29T17:47:49;10.50;99.90
8994;DHT22;4532;50.886;4.700;2022-12-29T17:50:23;10.40;99.90
8994;DHT22;4532;50.886;4.700;2022-12-29T17:53:04;10.40;99.90
8994;DHT22;4532;50.886;4.700;2022-12-29T17:55:36;10.50;99.90
8994;DHT22;4532;50.886;4.700;2022-12-29T17:58:23;10.40;99.90
8994;DHT22;4532;50.886;4.700;2022-12-29T18:00:59;10.40;99.90
8994;DHT22;4532;50.886;4.700;2022-12-29T18:03:34;10.50;99.90
8994;DHT22;4532;50.886;4.700;2022-12-29T18:06:03;10.40;99.90
8994;DHT22;4532;50.886;4.700;2022-12-29T18:08:34;10.40;99.90
8994;DHT22;4532;50.886;4.700;2022-12-29T18:11:08;10.40;99.90
8994;DHT22;4532;50.886;4.700;2022-12-29T18:13:41;10.40;99.90
8994;DHT22;4532;50.886;4.700;2022-12-29T18:16:15;10.40;99.90
8994;DHT22;4532;50.886;4.700;2022-12-29T18:18:42;10.20;99.90
8994;DHT22;4532;50.886;4.700;2022-12-29T18:21:15;10.30;99.90
8994;DHT22;4532;50.886;4.700;2022-12-29T18:23:43;10.30;99.90
8994;DHT22;4532;50.886;4.700;2022-12-29T18:28:55;10.30;99.90
8994;DHT22;4532;50.886;4.700;2022-12-29T18:31:25;10.30;99.90
8994;DHT22;4532;50.886;4.700;2022-12-29T18:33:59;10.30;99.90
8994;DHT22;4532;50.886;4.700;2022-12-29T18:36:29;10.30;99.90
8994;DHT22;4532;50.886;4.700;2022-12-29T18:38:56;10.30;99.90
8994;DHT22;4532;50.886;4.700;2022-12-29T18:41:30;10.30;99.90
8994;DHT22;4532;50.886;4.700;2022-12-29T18:43:59;10.30;99.90
8994;DHT22;4532;50.886;4.700;2022-12-29T18:46:33;10.20;99.90